createdAt,value
2023-02-26T00:01:25.386Z,99638.78
2023-02-26T00:03:59.223Z,99643.58
2023-02-26T00:06:32.838Z,99650.70
2023-02-26T00:09:05.422Z,99658.67
2023-02-26T00:11:38.288Z,99660.45
2023-02-26T00:14:14.573Z,99663.30
2023-02-26T00:16:51.632Z,99662.94
2023-02-26T00:19:24.337Z,99665.77
2023-02-26T00:21:57.316Z,99674.13
2023-02-26T00:24:28.992Z,99680.88
2023-02-26T00:27:01.271Z,99684.95
2023-02-26T00:29:34.113Z,99683.55
2023-02-26T00:32:06.936Z,99687.80
2023-02-26T00:34:40.531Z,99684.96
2023-02-26T00:37:25.659Z,99687.81
2023-02-26T00:40:11.999Z,99690.46
2023-02-26T00:42:44.663Z,99692.06
2023-02-26T00:45:17.834Z,99698.11
2023-02-26T00:47:56.822Z,99702.58
2023-02-26T00:50:30.720Z,99703.47
2023-02-26T00:53:12.963Z,99707.92
2023-02-26T00:55:44.650Z,99706.88
2023-02-26T00:58:16.459Z,99707.23
2023-02-26T01:00:48.742Z,99706.35
2023-02-26T01:03:21.569Z,99710.80
2023-02-26T01:05:51.965Z,99711.15
2023-02-26T01:08:29.713Z,99717.02
2023-02-26T01:11:02.431Z,99715.77
2023-02-26T01:13:33.082Z,99717.00
2023-02-26T01:16:10.300Z,99718.77
2023-02-26T01:18:49.196Z,99716.98
2023-02-26T01:21:27.964Z,99720.18
2023-02-26T01:24:03.472Z,99724.60
2023-02-26T01:26:35.582Z,99723.89
2023-02-26T01:29:08.032Z,99722.63
2023-02-26T01:31:50.274Z,99730.96
2023-02-26T01:34:33.118Z,99735.04
2023-02-26T01:37:13.607Z,99736.29
2023-02-26T01:39:51.336Z,99740.19
2023-02-26T01:42:26.825Z,99745.33
2023-02-26T01:45:05.187Z,99746.76
2023-02-26T01:47:46.774Z,99746.92
2023-02-26T01:50:25.696Z,99749.95
2023-02-26T01:53:22.752Z,99760.94
2023-02-26T01:55:59.636Z,99767.38
2023-02-26T01:58:35.111Z,99765.41
2023-02-26T02:01:08.303Z,99769.47
2023-02-26T02:03:43.004Z,99772.33
2023-02-26T02:06:20.667Z,99772.50
2023-02-26T02:08:53.425Z,99774.79
2023-02-26T02:11:25.506Z,99783.46
2023-02-26T02:14:11.370Z,99784.67
2023-02-26T02:16:54.319Z,99785.54
2023-02-26T02:19:51.805Z,99787.67
2023-02-26T02:22:41.536Z,99791.76
2023-02-26T02:25:41.841Z,99793.35
2023-02-26T02:28:30.854Z,99794.23
2023-02-26T02:31:09.357Z,99802.20
2023-02-26T02:33:51.487Z,99804.87
2023-02-26T02:36:30.542Z,99807.38
2023-02-26T02:39:07.171Z,99810.05
2023-02-26T02:41:44.820Z,99815.20
2023-02-26T02:44:20.186Z,99819.15
2023-02-26T02:46:57.681Z,99820.91
2023-02-26T02:49:35.185Z,99822.48
2023-02-26T02:52:13.931Z,99834.02
2023-02-26T02:54:52.302Z,99835.95
2023-02-26T02:57:29.661Z,99842.84
2023-02-26T03:00:06.361Z,99851.18
2023-02-26T03:02:44.347Z,99855.80
2023-02-26T03:05:19.292Z,99861.65
2023-02-26T03:07:57.681Z,99863.62
2023-02-26T03:10:30.348Z,99866.98
2023-02-26T03:13:02.593Z,99872.14
2023-02-26T03:15:42.490Z,99874.46
2023-02-26T03:18:26.520Z,99883.55
2023-02-26T03:21:07.673Z,99883.55
2023-02-26T03:23:46.346Z,99886.49
2023-02-26T03:26:25.555Z,99889.13
2023-02-26T03:29:03.925Z,99892.11
2023-02-26T03:31:42.568Z,99899.90
2023-02-26T03:34:24.154Z,99904.52
2023-02-26T03:36:59.120Z,99908.06
2023-02-26T03:39:39.046Z,99912.85
2023-02-26T03:42:19.833Z,99919.12
2023-02-26T03:44:59.509Z,99921.25
2023-02-26T03:47:34.658Z,99924.42
2023-02-26T03:50:09.932Z,99937.18
2023-02-26T03:52:52.075Z,99936.44
2023-02-26T03:55:50.394Z,99941.40
2023-02-26T03:58:58.298Z,99946.93
2023-02-26T04:01:32.868Z,99947.95
2023-02-26T04:04:08.614Z,99956.86
2023-02-26T04:06:40.850Z,99954.77
2023-02-26T04:09:15.228Z,99957.48
2023-02-26T04:11:48.773Z,99960.88
2023-02-26T04:14:20.564Z,99962.49
2023-02-26T04:16:51.666Z,99964.23
2023-02-26T04:19:23.877Z,99971.84
2023-02-26T04:21:55.811Z,99977.33
2023-02-26T04:24:27.670Z,99978.23
2023-02-26T04:27:00.174Z,99981.17
2023-02-26T04:29:32.628Z,99986.54
2023-02-26T04:32:04.817Z,99984.75
2023-02-26T04:34:37.132Z,99984.78
2023-02-26T04:37:08.913Z,99989.91
2023-02-26T04:39:40.013Z,99990.77
2023-02-26T04:42:14.104Z,99997.17
2023-02-26T04:44:45.861Z,100008.39
2023-02-26T04:47:18.169Z,100007.56
2023-02-26T04:49:50.054Z,100004.94
2023-02-26T04:52:21.866Z,100006.36
2023-02-26T04:54:53.790Z,100008.69
2023-02-26T04:57:25.502Z,100017.23
2023-02-26T04:59:57.527Z,100016.86
2023-02-26T05:02:32.417Z,100015.13
2023-02-26T05:05:04.694Z,100023.46
2023-02-26T05:07:36.431Z,100028.45
2023-02-26T05:10:10.210Z,100027.04
2023-02-26T05:12:42.061Z,100030.81
2023-02-26T05:15:14.211Z,100041.81
2023-02-26T05:17:47.888Z,100043.64
2023-02-26T05:20:20.412Z,100043.88
2023-02-26T05:22:50.813Z,100044.23
2023-02-26T05:25:22.572Z,100045.48
2023-02-26T05:27:54.352Z,100054.40
2023-02-26T05:30:26.503Z,100056.59
2023-02-26T05:32:58.631Z,100058.83
2023-02-26T05:35:30.480Z,100066.11
2023-02-26T05:38:02.204Z,100067.19
2023-02-26T05:40:33.868Z,100068.73
2023-02-26T05:43:05.821Z,100074.60
2023-02-26T05:45:37.574Z,100081.75
2023-02-26T05:48:11.126Z,100081.81
2023-02-26T05:50:42.859Z,100093.23
2023-02-26T05:53:14.556Z,100101.42
2023-02-26T05:55:46.407Z,100102.65
2023-02-26T05:58:18.109Z,100109.16
2023-02-26T06:00:49.924Z,100117.02
2023-02-26T06:03:22.284Z,100121.66
2023-02-26T06:05:54.376Z,100122.75
2023-02-26T06:08:26.729Z,100126.02
2023-02-26T06:10:58.900Z,100129.60
2023-02-26T06:13:30.940Z,100138.30
2023-02-26T06:16:02.738Z,100139.22
2023-02-26T06:18:35.167Z,100146.48
2023-02-26T06:21:08.205Z,100150.10
2023-02-26T06:23:40.056Z,100156.64
2023-02-26T06:26:11.845Z,100160.44
2023-02-26T06:28:43.668Z,100162.80
2023-02-26T06:31:16.123Z,100167.40
2023-02-26T06:33:48.070Z,100168.13
2023-02-26T06:36:19.996Z,100174.02
2023-02-26T06:38:51.686Z,100177.02
2023-02-26T06:41:23.411Z,100181.89
2023-02-26T06:43:55.529Z,100184.05
2023-02-26T06:46:27.592Z,100183.36
2023-02-26T06:49:00.330Z,100186.13
2023-02-26T06:51:32.469Z,100191.84
2023-02-26T06:54:04.412Z,100194.34
2023-02-26T06:56:36.175Z,100198.05
2023-02-26T06:59:08.058Z,100200.88
2023-02-26T07:01:39.974Z,100209.45
2023-02-26T07:04:12.419Z,100210.02
2023-02-26T07:06:43.109Z,100216.74
2023-02-26T07:09:15.284Z,100220.32
2023-02-26T07:11:47.097Z,100228.11
2023-02-26T07:14:18.970Z,100227.17
2023-02-26T07:16:53.874Z,100231.98
2023-02-26T07:19:25.629Z,100237.23
2023-02-26T07:21:57.864Z,100236.52
2023-02-26T07:24:30.139Z,100244.36
2023-02-26T07:27:01.904Z,100251.91
2023-02-26T07:29:33.770Z,100255.17
2023-02-26T07:32:06.018Z,100260.40
2023-02-26T07:34:38.291Z,100260.77
2023-02-26T07:37:10.711Z,100266.76
2023-02-26T07:39:42.436Z,100270.17
2023-02-26T07:42:17.203Z,100262.19
2023-02-26T07:44:49.019Z,100270.77
2023-02-26T07:47:20.933Z,100267.40
2023-02-26T07:49:52.717Z,100274.70
2023-02-26T07:52:24.487Z,100280.59
2023-02-26T07:54:56.386Z,100282.58
2023-02-26T07:57:28.226Z,100289.48
2023-02-26T08:00:00.031Z,100294.39
2023-02-26T08:02:32.015Z,100298.65
2023-02-26T08:05:04.283Z,100303.99
2023-02-26T08:07:37.636Z,100302.58
2023-02-26T08:10:13.884Z,100314.38
2023-02-26T08:12:45.642Z,100325.31
2023-02-26T08:15:18.203Z,100328.15
2023-02-26T08:17:52.687Z,100328.48
2023-02-26T08:20:24.698Z,100338.05
2023-02-26T08:22:56.563Z,100339.70
2023-02-26T08:25:28.381Z,100343.98
2023-02-26T08:28:01.160Z,100351.22
2023-02-26T08:30:31.467Z,100358.42
2023-02-26T08:33:03.816Z,100358.45
2023-02-26T08:35:34.623Z,100369.71
2023-02-26T08:38:06.499Z,100373.60
2023-02-26T08:40:42.386Z,100376.24
2023-02-26T08:43:14.705Z,100378.52
2023-02-26T08:45:49.560Z,100380.55
2023-02-26T08:48:21.256Z,100390.99
2023-02-26T08:50:53.773Z,100394.27
2023-02-26T08:53:25.564Z,100396.21
2023-02-26T08:55:57.228Z,100404.44
2023-02-26T08:58:31.229Z,100402.70
2023-02-26T09:01:03.821Z,100407.59
2023-02-26T09:03:35.759Z,100413.84
2023-02-26T09:06:07.994Z,100415.52
2023-02-26T09:08:40.105Z,100424.27
2023-02-26T09:11:12.085Z,100428.73
2023-02-26T09:13:44.102Z,100433.97
2023-02-26T09:16:16.627Z,100438.82
2023-02-26T09:18:49.132Z,100443.98
2023-02-26T09:21:20.921Z,100450.89
2023-02-26T09:23:53.108Z,100451.69
2023-02-26T09:26:25.388Z,100454.54
2023-02-26T09:28:57.514Z,100466.72
2023-02-26T09:31:29.403Z,100467.39
2023-02-26T09:34:01.662Z,100471.89
2023-02-26T09:36:33.486Z,100477.29
2023-02-26T09:39:05.535Z,100482.10
2023-02-26T09:41:42.443Z,100484.36
2023-02-26T09:44:21.900Z,100487.85
2023-02-26T09:47:06.923Z,100493.27
2023-02-26T09:49:49.357Z,100499.43
2023-02-26T09:52:25.585Z,100499.50
2023-02-26T09:55:02.275Z,100504.71
2023-02-26T09:57:37.069Z,100507.55
2023-02-26T10:00:34.220Z,100518.44
2023-02-26T10:03:19.937Z,100522.77
2023-02-26T10:06:22.538Z,100522.86
2023-02-26T10:09:21.656Z,100526.70
2023-02-26T10:11:58.296Z,100527.55
2023-02-26T10:14:37.084Z,100530.29
2023-02-26T10:17:20.194Z,100528.73
2023-02-26T10:19:57.350Z,100531.47
2023-02-26T10:22:33.998Z,100535.92
2023-02-26T10:25:12.120Z,100539.86
2023-02-26T10:27:51.329Z,100540.08
2023-02-26T10:30:31.605Z,100544.21
2023-02-26T10:33:13.249Z,100547.45
2023-02-26T10:35:52.107Z,100558.46
2023-02-26T10:38:29.411Z,100561.80
2023-02-26T10:41:05.867Z,100567.90
2023-02-26T10:43:41.851Z,100570.92
2023-02-26T10:46:27.847Z,100575.88
2023-02-26T10:49:23.023Z,100583.40
2023-02-26T10:51:55.428Z,100585.19
2023-02-26T10:54:34.595Z,100581.49
2023-02-26T10:57:07.239Z,100582.11
2023-02-26T10:59:37.539Z,100580.91
2023-02-26T11:02:37.784Z,100583.08
2023-02-26T11:05:19.403Z,100591.67
2023-02-26T11:07:55.573Z,100594.78
2023-02-26T11:10:41.453Z,100593.81
2023-02-26T11:13:13.907Z,100592.66
2023-02-26T11:15:47.472Z,100596.56
2023-02-26T11:18:24.580Z,100601.75
2023-02-26T11:20:59.642Z,100604.27
2023-02-26T11:23:34.529Z,100606.47
2023-02-26T11:26:10.833Z,100608.11
2023-02-26T11:28:47.366Z,100607.56
2023-02-26T11:31:22.281Z,100613.11
2023-02-26T11:33:56.849Z,100617.05
2023-02-26T11:36:31.722Z,100619.53
2023-02-26T11:39:08.291Z,100622.20
2023-02-26T11:41:42.574Z,100627.75
2023-02-26T11:44:19.368Z,100627.05
2023-02-26T11:46:57.107Z,100629.19
2023-02-26T11:49:30.555Z,100630.77
2023-02-26T11:52:22.374Z,100641.94
2023-02-26T11:55:00.663Z,100638.00
2023-02-26T11:57:34.026Z,100639.67
2023-02-26T12:00:21.735Z,100642.40
2023-02-26T12:02:57.800Z,100646.86
2023-02-26T12:05:29.973Z,100648.34
2023-02-26T12:08:02.603Z,100652.02
2023-02-26T12:10:41.863Z,100653.55
2023-02-26T12:13:21.094Z,100658.98
2023-02-26T12:15:59.843Z,100661.29
2023-02-26T12:18:55.846Z,100665.27
2023-02-26T12:21:45.362Z,100668.16
2023-02-26T12:24:34.587Z,100671.84
2023-02-26T12:27:15.246Z,100670.95
2023-02-26T12:30:04.706Z,100674.58
2023-02-26T12:32:52.393Z,100676.37
2023-02-26T12:35:51.050Z,100679.98
2023-02-26T12:38:36.094Z,100687.09
2023-02-26T12:41:43.606Z,100690.88
2023-02-26T12:44:32.990Z,100686.98
2023-02-26T12:47:20.456Z,100689.14
2023-02-26T12:50:10.609Z,100691.46
2023-02-26T12:52:56.970Z,100695.78
2023-02-26T12:55:39.682Z,100697.78
2023-02-26T12:58:28.090Z,100704.39
2023-02-26T13:01:16.281Z,100711.19
2023-02-26T13:04:17.973Z,100706.92
2023-02-26T13:07:07.122Z,100708.95
2023-02-26T13:09:53.501Z,100712.69
2023-02-26T13:12:37.786Z,100714.59
2023-02-26T13:15:36.481Z,100721.34
2023-02-26T13:18:16.691Z,100718.27
2023-02-26T13:21:00.932Z,100718.63
2023-02-26T13:23:37.700Z,100719.86
2023-02-26T13:26:12.998Z,100721.46
2023-02-26T13:28:48.984Z,100726.44
2023-02-26T13:31:27.633Z,100719.07
2023-02-26T13:34:03.614Z,100723.00
2023-02-26T13:36:35.871Z,100726.67
2023-02-26T13:39:24.161Z,100728.02
2023-02-26T13:42:02.884Z,100729.38
2023-02-26T13:44:43.715Z,100733.41
2023-02-26T13:47:42.533Z,100730.25
2023-02-26T13:50:28.311Z,100734.05
2023-02-26T13:53:37.006Z,100731.52
2023-02-26T13:56:17.212Z,100739.02
2023-02-26T13:58:53.609Z,100744.69
2023-02-26T14:01:33.730Z,100749.13
2023-02-26T14:04:26.917Z,100754.46
2023-02-26T14:07:01.631Z,100764.79
2023-02-26T14:09:45.546Z,100766.95
2023-02-26T14:12:35.043Z,100767.95
2023-02-26T14:15:38.477Z,100771.34
2023-02-26T14:18:20.717Z,100771.69
2023-02-26T14:20:53.869Z,100775.90
2023-02-26T14:23:38.268Z,100775.65
2023-02-26T14:26:19.456Z,100777.96
2023-02-26T14:29:15.780Z,100783.48
2023-02-26T14:32:03.828Z,100785.84
2023-02-26T14:34:44.029Z,100791.96
2023-02-26T14:37:21.393Z,100792.30
2023-02-26T14:39:59.014Z,100795.52
2023-02-26T14:42:38.468Z,100797.89
2023-02-26T14:45:24.488Z,100800.27
2023-02-26T14:47:58.744Z,100806.34
2023-02-26T14:50:40.467Z,100810.52
2023-02-26T14:53:37.457Z,100813.41
2023-02-26T14:56:19.965Z,100815.64
2023-02-26T14:59:20.077Z,100816.55
2023-02-26T15:02:02.844Z,100821.52
2023-02-26T15:05:11.228Z,100824.05
2023-02-26T15:08:01.465Z,100824.70
2023-02-26T15:10:45.952Z,100830.41
2023-02-26T15:13:32.940Z,100835.23
2023-02-26T15:16:13.235Z,100833.02
2023-02-26T15:19:12.293Z,100836.22
2023-02-26T15:21:59.807Z,100838.75
2023-02-26T15:24:33.582Z,100839.66
2023-02-26T15:27:10.132Z,100841.07
2023-02-26T15:29:44.139Z,100840.30
2023-02-26T15:32:27.355Z,100845.38
2023-02-26T15:35:02.587Z,100844.61
2023-02-26T15:37:35.485Z,100845.70
2023-02-26T15:40:09.837Z,100848.25
2023-02-26T15:42:45.131Z,100852.36
2023-02-26T15:45:22.644Z,100852.41
2023-02-26T15:48:02.711Z,100852.36
2023-02-26T15:50:37.850Z,100861.40
2023-02-26T15:53:14.138Z,100863.95
2023-02-26T15:55:51.597Z,100863.59
2023-02-26T15:58:31.457Z,100864.88
2023-02-26T16:01:05.059Z,100870.27
2023-02-26T16:03:39.143Z,100870.73
2023-02-26T16:06:16.889Z,100873.08
2023-02-26T16:08:48.894Z,100873.16
2023-02-26T16:11:22.436Z,100875.98
2023-02-26T16:13:58.962Z,100883.91
2023-02-26T16:16:40.556Z,100883.82
2023-02-26T16:19:16.507Z,100892.02
2023-02-26T16:21:49.585Z,100900.00
2023-02-26T16:24:23.314Z,100905.59
2023-02-26T16:27:01.928Z,100909.44
2023-02-26T16:29:37.000Z,100912.56
2023-02-26T16:32:12.916Z,100921.35
2023-02-26T16:34:50.515Z,100919.19
2023-02-26T16:37:32.122Z,100928.51
2023-02-26T16:40:20.057Z,100930.71
2023-02-26T16:43:01.973Z,100932.43
2023-02-26T16:45:50.962Z,100931.26
2023-02-26T16:48:27.279Z,100939.04
2023-02-26T16:51:02.271Z,100944.42
2023-02-26T16:53:40.195Z,100952.06
2023-02-26T16:56:16.867Z,100954.09
2023-02-26T16:58:52.557Z,100956.00
2023-02-26T17:01:26.007Z,100957.84
2023-02-26T17:04:04.158Z,100962.52
2023-02-26T17:06:41.885Z,100963.80
2023-02-26T17:09:31.663Z,100966.61
2023-02-26T17:12:18.703Z,100968.73
2023-02-26T17:14:56.908Z,100969.67
2023-02-26T17:17:29.285Z,100981.45
2023-02-26T17:20:00.930Z,100982.31
2023-02-26T17:22:33.076Z,100985.98
2023-02-26T17:25:06.571Z,100991.15
2023-02-26T17:27:39.585Z,100997.77
2023-02-26T17:30:17.372Z,100994.67
2023-02-26T17:32:49.906Z,101000.09
2023-02-26T17:35:21.882Z,101003.19
2023-02-26T17:37:54.698Z,101009.98
2023-02-26T17:40:32.339Z,101013.76
2023-02-26T17:43:04.617Z,101013.52
2023-02-26T17:45:39.109Z,101018.60
2023-02-26T17:48:12.140Z,101019.12
2023-02-26T17:50:47.881Z,101019.75
2023-02-26T17:53:21.092Z,101022.31
2023-02-26T17:55:56.273Z,101022.42
2023-02-26T17:58:32.004Z,101025.04
2023-02-26T18:01:04.577Z,101032.49
2023-02-26T18:03:38.234Z,101029.83
2023-02-26T18:06:13.398Z,101026.71
2023-02-26T18:08:46.707Z,101026.48
2023-02-26T18:11:20.517Z,101026.14
2023-02-26T18:13:52.530Z,101030.92
2023-02-26T18:16:33.306Z,101029.98
2023-02-26T18:19:06.294Z,101029.05
2023-02-26T18:21:38.108Z,101030.92
2023-02-26T18:24:11.226Z,101032.27
2023-02-26T18:26:43.446Z,101036.96
2023-02-26T18:29:15.282Z,101039.45
2023-02-26T18:31:47.220Z,101040.52
2023-02-26T18:34:18.359Z,101040.77
2023-02-26T18:36:50.493Z,101043.92
2023-02-26T18:39:24.105Z,101047.30
2023-02-26T18:41:55.927Z,101046.45
2023-02-26T18:44:29.322Z,101050.19
2023-02-26T18:47:01.483Z,101058.41
2023-02-26T18:49:33.419Z,101066.64
2023-02-26T18:52:05.294Z,101063.27
2023-02-26T18:54:37.832Z,101067.67
2023-02-26T18:57:10.205Z,101074.70
2023-02-26T18:59:42.005Z,101078.85
2023-02-26T19:02:15.576Z,101077.04
2023-02-26T19:04:48.132Z,101078.35
2023-02-26T19:07:20.051Z,101082.08
2023-02-26T19:09:52.050Z,101085.73
2023-02-26T19:12:26.274Z,101086.89
2023-02-26T19:14:58.242Z,101081.27
2023-02-26T19:17:30.016Z,101081.23
2023-02-26T19:20:01.741Z,101085.48
2023-02-26T19:22:34.232Z,101093.63
2023-02-26T19:25:07.478Z,101096.63
2023-02-26T19:27:39.724Z,101104.09
2023-02-26T19:30:11.851Z,101103.76
2023-02-26T19:32:43.893Z,101105.55
2023-02-26T19:35:16.112Z,101111.61
2023-02-26T19:37:48.374Z,101113.04
2023-02-26T19:40:21.103Z,101115.20
2023-02-26T19:42:53.606Z,101121.16
2023-02-26T19:45:25.412Z,101122.54
2023-02-26T19:47:57.181Z,101124.45
2023-02-26T19:50:29.170Z,101130.58
2023-02-26T19:53:00.889Z,101130.80
2023-02-26T19:55:32.631Z,101137.19
2023-02-26T19:58:04.855Z,101138.36
2023-02-26T20:00:36.713Z,101143.98
2023-02-26T20:03:09.284Z,101145.90
2023-02-26T20:05:41.665Z,101153.73
2023-02-26T20:08:13.579Z,101157.69
2023-02-26T20:10:46.385Z,101166.45
2023-02-26T20:13:18.186Z,101168.90
2023-02-26T20:15:53.444Z,101167.79
2023-02-26T20:18:27.509Z,101172.59
2023-02-26T20:20:59.796Z,101178.52
2023-02-26T20:23:34.591Z,101181.52
2023-02-26T20:26:09.101Z,101182.43
2023-02-26T20:28:40.909Z,101181.21
2023-02-26T20:31:13.215Z,101183.70
2023-02-26T20:33:45.655Z,101187.86
2023-02-26T20:36:17.613Z,101194.48
2023-02-26T20:38:49.947Z,101199.09
2023-02-26T20:41:21.868Z,101199.18
2023-02-26T20:43:53.847Z,101200.17
2023-02-26T20:46:25.670Z,101202.82
2023-02-26T20:48:59.750Z,101206.63
2023-02-26T20:51:31.773Z,101213.13
2023-02-26T20:54:03.630Z,101214.83
2023-02-26T20:56:38.524Z,101211.07
2023-02-26T20:59:10.580Z,101217.73
2023-02-26T21:01:42.401Z,101222.86
2023-02-26T21:04:14.403Z,101221.86
2023-02-26T21:06:46.866Z,101219.94
2023-02-26T21:09:18.557Z,101224.52
2023-02-26T21:11:52.442Z,101225.60
2023-02-26T21:14:26.712Z,101221.60
2023-02-26T21:17:01.909Z,101225.38
2023-02-26T21:19:34.656Z,101230.98
2023-02-26T21:22:06.671Z,101230.42
2023-02-26T21:24:38.393Z,101227.73
2023-02-26T21:27:10.224Z,101224.70
2023-02-26T21:29:42.091Z,101232.75
2023-02-26T21:32:14.139Z,101232.98
2023-02-26T21:34:47.134Z,101236.17
2023-02-26T21:37:19.333Z,101238.62
2023-02-26T21:39:51.257Z,101243.70
2023-02-26T21:42:23.479Z,101240.70
2023-02-26T21:44:55.166Z,101240.36
2023-02-26T21:47:27.045Z,101243.05
2023-02-26T21:49:58.682Z,101242.30
2023-02-26T21:52:30.344Z,101247.98
2023-02-26T21:55:02.095Z,101246.73
2023-02-26T21:57:33.859Z,101246.96
2023-02-26T22:00:10.080Z,101247.77
2023-02-26T22:02:45.078Z,101248.58
2023-02-26T22:05:17.191Z,101248.74
2023-02-26T22:07:49.133Z,101250.92
2023-02-26T22:10:21.051Z,101250.89
2023-02-26T22:12:52.705Z,101254.22
2023-02-26T22:15:24.411Z,101258.30
2023-02-26T22:17:56.150Z,101257.21
2023-02-26T22:20:28.162Z,101253.91
2023-02-26T22:23:00.642Z,101258.77
2023-02-26T22:25:32.681Z,101263.47
2023-02-26T22:28:05.566Z,101264.26
2023-02-26T22:30:37.736Z,101268.25
2023-02-26T22:33:09.610Z,101275.89
2023-02-26T22:35:41.981Z,101277.85
2023-02-26T22:38:14.397Z,101276.88
2023-02-26T22:40:46.089Z,101276.56
2023-02-26T22:43:18.083Z,101277.73
2023-02-26T22:45:50.454Z,101279.77
2023-02-26T22:48:23.340Z,101287.09
2023-02-26T22:50:55.270Z,101283.95
2023-02-26T22:53:26.977Z,101293.98
2023-02-26T22:55:59.092Z,101289.20
2023-02-26T22:58:31.105Z,101289.83
2023-02-26T23:01:04.999Z,101292.60
2023-02-26T23:03:37.156Z,101294.98
2023-02-26T23:06:10.366Z,101295.36
2023-02-26T23:08:42.698Z,101301.08
2023-02-26T23:11:14.412Z,101296.44
2023-02-26T23:13:46.188Z,101298.91
2023-02-26T23:16:18.120Z,101302.32
2023-02-26T23:18:49.849Z,101302.52
2023-02-26T23:21:21.630Z,101301.75
2023-02-26T23:23:53.302Z,101307.73
2023-02-26T23:26:25.288Z,101306.77
2023-02-26T23:28:57.027Z,101306.94
2023-02-26T23:31:29.838Z,101311.95
2023-02-26T23:34:01.912Z,101311.50
2023-02-26T23:36:33.691Z,101309.27
2023-02-26T23:39:06.584Z,101312.73
2023-02-26T23:41:38.427Z,101314.27
2023-02-26T23:44:12.560Z,101315.71
2023-02-26T23:46:45.231Z,101313.23
2023-02-26T23:49:17.346Z,101314.05
2023-02-26T23:51:49.335Z,101310.03
2023-02-26T23:54:20.965Z,101311.32
2023-02-26T23:56:53.015Z,101310.02
2023-02-26T23:59:24.855Z,101310.79
